Time;durP1;ratioP1;P1;durP2;ratioP2;P2;SDS_P1;SDS_P2;PMS_P1;PMS_P2;Temp;Humidity;BMP_temperature;BMP_pressure;BME280_temperature;BME280_humidity;BME280_pressure;Samples;Min_cycle;Max_cycle;Signal;HPM_P1;HPM_P2
2020/12/21 00:02:14;;;;;;;14.87;6.40;;;;;;;;;;4348127;33;20221;-76
2020/12/21 00:04:39;;;;;;;18.27;7.43;;;;;;;;;;4348181;33;20220;-76
2020/12/21 00:07:04;;;;;;;11.88;5.97;;;;;;;;;;4347655;33;20222;-76
2020/12/21 00:09:30;;;;;;;13.70;6.20;;;;;;;;;;4347573;33;20186;-76
2020/12/21 00:11:55;;;;;;;17.30;6.90;;;;;;;;;;4361332;32;20150;-76
2020/12/21 00:14:21;;;;;;;18.23;6.20;;;;;;;;;;4348333;33;20185;-76
2020/12/21 00:16:47;;;;;;;11.47;5.50;;;;;;;;;;4347426;33;20519;-76
2020/12/21 00:19:24;;;;;;;14.38;6.32;;;;;;;;;;4347630;33;20223;-76
2020/12/21 00:21:50;;;;;;;12.80;5.40;;;;;;;;;;4347335;33;20170;-76
2020/12/21 00:24:16;;;;;;;13.27;5.45;;;;;;;;;;4361237;32;20147;-76
2020/12/21 00:26:45;;;;;;;11.23;5.35;;;;;;;;;;4347637;33;20163;-76
2020/12/21 00:29:10;;;;;;;11.90;5.43;;;;;;;;;;4347221;33;20163;-76
2020/12/21 00:31:35;;;;;;;14.97;5.53;;;;;;;;;;4347431;33;20185;-76
2020/12/21 00:34:02;;;;;;;15.00;5.25;;;;;;;;;;4347282;33;20520;-76
2020/12/21 00:36:27;;;;;;;10.80;5.40;;;;;;;;;;4347987;33;20178;-76
2020/12/21 00:38:53;;;;;;;13.87;5.47;;;;;;;;;;4348176;33;20171;-76
2020/12/21 00:41:19;;;;;;;12.37;5.07;;;;;;;;;;4347997;33;20592;-76
2020/12/21 00:43:45;;;;;;;13.07;5.23;;;;;;;;;;4347200;33;20221;-76
2020/12/21 00:46:18;;;;;;;13.83;5.30;;;;;;;;;;4360490;32;20146;-76
2020/12/21 00:48:44;;;;;;;16.17;5.43;;;;;;;;;;4360547;32;20179;-76
2020/12/21 00:51:10;;;;;;;15.67;5.20;;;;;;;;;;4347217;33;20181;-76
2020/12/21 00:53:36;;;;;;;13.70;5.23;;;;;;;;;;4346805;33;20220;-76
2020/12/21 00:56:07;;;;;;;13.50;5.03;;;;;;;;;;4360864;32;20151;-76
2020/12/21 00:58:34;;;;;;;13.30;5.07;;;;;;;;;;4361869;32;20154;-76
2020/12/21 01:00:59;;;;;;;17.13;5.00;;;;;;;;;;4346856;33;20230;-76
2020/12/21 01:03:25;;;;;;;15.33;5.40;;;;;;;;;;4347418;33;20167;-76
2020/12/21 01:05:50;;;;;;;13.17;4.90;;;;;;;;;;4346878;33;20179;-76
2020/12/21 01:08:15;;;;;;;17.70;5.77;;;;;;;;;;4347527;33;20232;-76
2020/12/21 01:10:40;;;;;;;11.67;5.07;;;;;;;;;;4346704;33;20167;-76
2020/12/21 01:13:06;;;;;;;18.77;5.13;;;;;;;;;;4347333;33;20193;-76
2020/12/21 01:15:31;;;;;;;14.97;4.60;;;;;;;;;;4346880;33;20704;-76
2020/12/21 01:17:56;;;;;;;18.30;5.40;;;;;;;;;;4346592;33;20604;-76
2020/12/21 01:20:22;;;;;;;16.67;4.80;;;;;;;;;;4346752;33;20179;-76
2020/12/21 01:22:49;;;;;;;11.30;4.60;;;;;;;;;;4347796;33;20193;-76
2020/12/21 01:25:15;;;;;;;12.33;4.50;;;;;;;;;;4341311;33;20197;-76
2020/12/21 01:27:40;;;;;;;18.20;4.70;;;;;;;;;;4346919;33;20167;-76
2020/12/21 01:30:05;;;;;;;16.60;5.50;;;;;;;;;;4360354;33;20426;-76
2020/12/21 01:32:30;;;;;;;13.67;4.00;;;;;;;;;;4347416;33;20213;-76
2020/12/21 01:34:56;;;;;;;15.83;4.10;;;;;;;;;;4347043;33;20189;-76
2020/12/21 01:37:21;;;;;;;17.03;4.33;;;;;;;;;;4346365;33;20171;-76
2020/12/21 01:39:49;;;;;;;16.33;4.13;;;;;;;;;;4346936;33;20521;-76
2020/12/21 01:42:16;;;;;;;17.40;4.33;;;;;;;;;;4360388;32;20155;-76
2020/12/21 01:44:42;;;;;;;11.23;4.07;;;;;;;;;;4346401;33;20195;-76
2020/12/21 01:47:08;;;;;;;12.67;4.33;;;;;;;;;;4346910;33;20189;-75
2020/12/21 01:49:36;;;;;;;12.33;4.03;;;;;;;;;;4346826;33;20514;-75
2020/12/21 01:52:01;;;;;;;15.33;4.57;;;;;;;;;;4346289;33;20194;-75
2020/12/21 01:54:26;;;;;;;14.17;4.17;;;;;;;;;;4347456;33;20167;-75
2020/12/21 01:56:52;;;;;;;12.37;4.10;;;;;;;;;;4359717;33;20150;-75
2020/12/21 01:59:18;;;;;;;13.90;4.27;;;;;;;;;;4346532;33;20239;-75
2020/12/21 02:01:45;;;;;;;14.67;4.23;;;;;;;;;;4347448;33;20254;-76
2020/12/21 02:04:10;;;;;;;11.70;4.10;;;;;;;;;;4346803;33;20167;-75
2020/12/21 02:06:36;;;;;;;11.77;4.23;;;;;;;;;;4346163;33;20194;-75
2020/12/21 02:09:01;;;;;;;14.33;4.03;;;;;;;;;;4343959;33;20194;-75
2020/12/21 02:11:26;;;;;;;18.13;3.97;;;;;;;;;;4343716;33;20174;-75
2020/12/21 02:13:52;;;;;;;15.03;4.20;;;;;;;;;;4344145;33;20167;-75
2020/12/21 02:16:26;;;;;;;13.77;4.43;;;;;;;;;;4343884;33;20210;-76
2020/12/21 02:18:51;;;;;;;13.27;3.90;;;;;;;;;;4344061;33;20179;-75
2020/12/21 02:21:16;;;;;;;17.27;3.80;;;;;;;;;;4346480;33;20470;-76
2020/12/21 02:23:41;;;;;;;11.43;3.90;;;;;;;;;;4346225;33;20183;-75
2020/12/21 02:26:07;;;;;;;9.90;3.90;;;;;;;;;;4346454;33;20170;-75
2020/12/21 02:28:32;;;;;;;16.47;4.63;;;;;;;;;;4346098;33;20194;-75
2020/12/21 02:30:57;;;;;;;11.97;4.47;;;;;;;;;;4346375;33;20174;-75
2020/12/21 02:33:22;;;;;;;13.00;3.90;;;;;;;;;;4346110;33;20584;-75
2020/12/21 02:35:48;;;;;;;13.43;4.43;;;;;;;;;;4345946;33;20249;-75
2020/12/21 02:38:13;;;;;;;14.00;5.00;;;;;;;;;;4359480;33;20221;-75
2020/12/21 02:40:39;;;;;;;14.97;4.43;;;;;;;;;;4359786;33;20185;-76
2020/12/21 02:43:05;;;;;;;14.87;4.23;;;;;;;;;;4347052;33;20163;-75
2020/12/21 02:45:30;;;;;;;14.13;4.03;;;;;;;;;;4346106;33;20171;-75
2020/12/21 02:47:55;;;;;;;10.67;3.53;;;;;;;;;;4347607;33;20193;-75
2020/12/21 02:50:21;;;;;;;12.87;4.03;;;;;;;;;;4349043;33;20158;-75
2020/12/21 02:52:46;;;;;;;21.80;4.27;;;;;;;;;;4348807;33;20290;-75
2020/12/21 02:55:11;;;;;;;18.03;4.40;;;;;;;;;;4349185;33;20523;-75
2020/12/21 02:57:37;;;;;;;12.23;3.93;;;;;;;;;;4348793;33;20195;-75
2020/12/21 03:00:06;;;;;;;12.77;3.63;;;;;;;;;;4348796;33;20162;-75
2020/12/21 03:02:31;;;;;;;13.67;4.00;;;;;;;;;;4349064;33;20163;-75
2020/12/21 03:04:56;;;;;;;16.67;4.23;;;;;;;;;;4348567;33;20273;-75
2020/12/21 03:07:21;;;;;;;18.70;3.83;;;;;;;;;;4348457;33;20213;-76
2020/12/21 03:09:47;;;;;;;15.27;4.37;;;;;;;;;;4362206;32;20167;-76
2020/12/21 03:12:12;;;;;;;16.20;4.50;;;;;;;;;;4348457;33;20213;-75
2020/12/21 03:14:37;;;;;;;15.60;4.27;;;;;;;;;;4348365;33;20175;-75
2020/12/21 03:17:03;;;;;;;16.33;4.20;;;;;;;;;;4348975;33;20171;-76
2020/12/21 03:19:29;;;;;;;13.03;4.07;;;;;;;;;;4348491;33;20188;-75
2020/12/21 03:21:54;;;;;;;12.17;4.23;;;;;;;;;;4348623;33;20206;-75
2020/12/21 03:24:19;;;;;;;14.47;4.70;;;;;;;;;;4348261;33;20223;-75
2020/12/21 03:26:44;;;;;;;17.70;4.97;;;;;;;;;;4348826;33;20162;-76
2020/12/21 03:29:10;;;;;;;16.03;4.87;;;;;;;;;;4348473;33;20179;-75
2020/12/21 03:31:35;;;;;;;18.03;5.33;;;;;;;;;;4348156;33;20541;-75
2020/12/21 03:34:00;;;;;;;14.87;5.67;;;;;;;;;;4348112;33;20193;-75
2020/12/21 03:36:25;;;;;;;19.57;5.93;;;;;;;;;;4348085;33;20163;-75
2020/12/21 03:38:51;;;;;;;16.00;5.23;;;;;;;;;;4348282;33;20247;-75
2020/12/21 03:41:16;;;;;;;12.33;5.27;;;;;;;;;;4348104;33;20189;-75
2020/12/21 03:43:41;;;;;;;22.77;6.83;;;;;;;;;;4348030;33;20274;-75
2020/12/21 03:46:06;;;;;;;15.63;6.63;;;;;;;;;;4361831;32;20150;-75
2020/12/21 03:48:31;;;;;;;22.50;7.93;;;;;;;;;;4348034;33;20170;-75
2020/12/21 03:50:57;;;;;;;17.63;6.37;;;;;;;;;;4347986;33;20198;-75
2020/12/21 03:53:22;;;;;;;17.47;6.37;;;;;;;;;;4347928;33;20221;-75
2020/12/21 03:55:47;;;;;;;15.90;7.10;;;;;;;;;;4361652;32;20169;-75
2020/12/21 03:58:13;;;;;;;20.27;6.97;;;;;;;;;;4347841;33;20222;-75
2020/12/21 04:00:39;;;;;;;18.43;7.13;;;;;;;;;;4347082;33;20171;-75
2020/12/21 04:03:04;;;;;;;17.77;6.73;;;;;;;;;;4347646;33;20190;-76
2020/12/21 04:05:29;;;;;;;13.67;6.10;;;;;;;;;;4347839;33;20201;-75
2020/12/21 04:07:55;;;;;;;16.50;7.10;;;;;;;;;;4348043;33;20528;-76
2020/12/21 04:10:20;;;;;;;21.80;7.93;;;;;;;;;;4347828;33;20239;-75
2020/12/21 04:12:46;;;;;;;18.90;6.40;;;;;;;;;;4347930;33;20201;-76
2020/12/21 04:15:12;;;;;;;15.40;7.00;;;;;;;;;;4361180;32;20192;-75
2020/12/21 04:17:37;;;;;;;20.10;6.87;;;;;;;;;;4361514;32;20151;-75
2020/12/21 04:20:02;;;;;;;15.20;6.77;;;;;;;;;;4347246;33;20186;-76
2020/12/21 04:22:27;;;;;;;20.97;7.80;;;;;;;;;;4347698;33;20181;-75
2020/12/21 04:24:53;;;;;;;14.77;6.40;;;;;;;;;;4347698;33;20373;-75
2020/12/21 04:27:18;;;;;;;18.60;6.63;;;;;;;;;;4347336;33;20193;-75
2020/12/21 04:29:43;;;;;;;19.37;7.47;;;;;;;;;;4360846;32;20213;-75
2020/12/21 04:32:08;;;;;;;17.30;7.03;;;;;;;;;;4347331;33;20159;-75
2020/12/21 04:34:34;;;;;;;22.03;7.93;;;;;;;;;;4360949;32;20170;-75
2020/12/21 04:36:59;;;;;;;21.17;7.93;;;;;;;;;;4348299;33;20627;-75
2020/12/21 04:39:24;;;;;;;12.77;6.57;;;;;;;;;;4349676;33;20167;-75
2020/12/21 04:41:50;;;;;;;17.60;6.87;;;;;;;;;;4348615;33;20171;-75
2020/12/21 04:44:16;;;;;;;19.07;6.23;;;;;;;;;;4332931;33;20163;-75
2020/12/21 04:46:41;;;;;;;15.23;6.70;;;;;;;;;;4332966;33;20163;-75
2020/12/21 04:49:06;;;;;;;17.67;6.90;;;;;;;;;;4345847;33;20239;-75
2020/12/21 04:51:32;;;;;;;17.30;7.07;;;;;;;;;;4345768;33;20143;-75
2020/12/21 04:53:58;;;;;;;14.33;6.77;;;;;;;;;;4333243;33;20496;-75
2020/12/21 04:56:24;;;;;;;20.13;7.90;;;;;;;;;;4332245;33;20198;-75
2020/12/21 04:58:49;;;;;;;15.60;6.67;;;;;;;;;;4333130;33;20243;-75
2020/12/21 05:01:17;;;;;;;20.70;7.23;;;;;;;;;;4347408;33;20607;-76
2020/12/21 05:03:49;;;;;;;14.40;6.80;;;;;;;;;;4347271;33;20573;-75
2020/12/21 05:06:15;;;;;;;18.00;7.07;;;;;;;;;;4360234;32;20596;-75
2020/12/21 05:08:40;;;;;;;16.23;7.30;;;;;;;;;;4346794;33;20233;-75
2020/12/21 05:11:05;;;;;;;17.37;6.97;;;;;;;;;;4346113;33;20171;-75
2020/12/21 05:13:31;;;;;;;17.83;6.97;;;;;;;;;;4347057;33;20242;-76
2020/12/21 05:15:57;;;;;;;17.17;7.43;;;;;;;;;;4346769;33;20178;-75
2020/12/21 05:18:34;;;;;;;17.43;7.17;;;;;;;;;;4360023;33;20489;-75
2020/12/21 05:20:59;;;;;;;13.93;7.40;;;;;;;;;;4347091;33;20248;-75
2020/12/21 05:23:25;;;;;;;17.27;7.13;;;;;;;;;;4346951;33;20179;-75
2020/12/21 05:26:09;;;;;;;20.53;7.77;;;;;;;;;;4347237;33;20167;-76
2020/12/21 05:28:35;;;;;;;17.63;7.33;;;;;;;;;;4346644;33;20232;-76
2020/12/21 05:31:02;;;;;;;24.03;8.00;;;;;;;;;;4359927;33;20165;-76
2020/12/21 05:33:27;;;;;;;19.60;8.13;;;;;;;;;;4346984;33;20521;-75
2020/12/21 05:35:55;;;;;;;25.27;8.40;;;;;;;;;;4347272;33;20226;-75
2020/12/21 05:38:21;;;;;;;20.70;7.97;;;;;;;;;;4358968;32;20174;-75
2020/12/21 05:40:46;;;;;;;22.33;8.00;;;;;;;;;;4346538;33;20232;-75
2020/12/21 05:43:24;;;;;;;17.33;8.10;;;;;;;;;;4360044;32;20461;-75
2020/12/21 05:46:00;;;;;;;17.60;7.80;;;;;;;;;;4360327;33;20139;-75
2020/12/21 05:48:28;;;;;;;20.70;8.07;;;;;;;;;;4346375;33;20495;-75
2020/12/21 05:50:53;;;;;;;20.07;7.63;;;;;;;;;;4359944;32;20143;-75
2020/12/21 05:53:18;;;;;;;19.67;7.80;;;;;;;;;;4346452;33;20185;-76
2020/12/21 05:55:46;;;;;;;20.13;7.67;;;;;;;;;;4346295;33;20624;-75
2020/12/21 05:58:12;;;;;;;23.03;8.13;;;;;;;;;;4360144;32;20592;-75
2020/12/21 06:00:38;;;;;;;22.67;8.40;;;;;;;;;;4343656;33;20198;-75
2020/12/21 06:03:06;;;;;;;25.20;7.67;;;;;;;;;;4346414;33;20166;-75
2020/12/21 06:05:35;;;;;;;18.63;8.07;;;;;;;;;;4346291;33;20600;-75
2020/12/21 06:08:01;;;;;;;24.00;7.77;;;;;;;;;;4346145;33;20529;-75
2020/12/21 06:10:28;;;;;;;26.70;8.50;;;;;;;;;;4346176;33;20189;-75
2020/12/21 06:12:54;;;;;;;25.33;7.93;;;;;;;;;;4346154;33;20225;-75
2020/12/21 06:15:22;;;;;;;25.70;8.30;;;;;;;;;;4346019;33;20171;-75
2020/12/21 06:17:47;;;;;;;22.50;7.60;;;;;;;;;;4360453;33;20556;-75
2020/12/21 06:20:13;;;;;;;23.87;7.43;;;;;;;;;;4361414;33;20268;-75
2020/12/21 06:22:38;;;;;;;28.57;7.70;;;;;;;;;;4348514;33;20221;-75
2020/12/21 06:25:07;;;;;;;26.60;8.17;;;;;;;;;;4349867;33;20552;-75
2020/12/21 06:27:36;;;;;;;24.23;7.20;;;;;;;;;;4346610;33;20171;-75
2020/12/21 06:30:01;;;;;;;20.30;7.00;;;;;;;;;;4334260;33;20201;-75
2020/12/21 06:32:31;;;;;;;21.60;7.37;;;;;;;;;;4334869;33;20172;-75
2020/12/21 06:34:56;;;;;;;18.13;6.33;;;;;;;;;;4334284;33;20171;-75
2020/12/21 06:37:21;;;;;;;17.30;6.73;;;;;;;;;;4346208;33;20191;-75
2020/12/21 06:40:16;;;;;;;20.67;7.07;;;;;;;;;;4346853;33;20167;-75
2020/12/21 06:42:41;;;;;;;24.43;6.77;;;;;;;;;;4322344;33;20217;-75
2020/12/21 06:45:12;;;;;;;18.77;6.20;;;;;;;;;;4348147;33;20489;-75
2020/12/21 06:47:37;;;;;;;16.87;6.27;;;;;;;;;;4334230;33;20202;-75
2020/12/21 06:50:02;;;;;;;18.53;5.83;;;;;;;;;;4348151;33;20140;-75
2020/12/21 06:52:27;;;;;;;17.37;5.67;;;;;;;;;;4335142;33;20194;-75
2020/12/21 06:54:53;;;;;;;19.40;5.40;;;;;;;;;;4362601;32;20135;-75
2020/12/21 06:57:18;;;;;;;19.80;6.00;;;;;;;;;;4348691;33;20159;-75
2020/12/21 06:59:44;;;;;;;14.43;5.27;;;;;;;;;;4348644;33;20191;-76
2020/12/21 07:02:09;;;;;;;17.10;6.00;;;;;;;;;;4363113;32;20144;-76
2020/12/21 07:04:35;;;;;;;20.50;5.90;;;;;;;;;;4348577;33;20162;-76
2020/12/21 07:07:01;;;;;;;12.53;4.73;;;;;;;;;;4362614;32;20143;-76
2020/12/21 07:09:28;;;;;;;18.03;5.13;;;;;;;;;;4348800;33;20230;-76
2020/12/21 07:11:54;;;;;;;16.47;5.57;;;;;;;;;;4348520;33;20193;-75
2020/12/21 07:14:20;;;;;;;20.87;5.57;;;;;;;;;;4362214;32;20139;-76
2020/12/21 07:16:45;;;;;;;11.60;4.67;;;;;;;;;;4345650;33;20218;-75
2020/12/21 07:19:11;;;;;;;13.60;5.30;;;;;;;;;;4333769;33;20589;-75
2020/12/21 07:21:36;;;;;;;18.10;5.13;;;;;;;;;;4334145;33;20179;-76
2020/12/21 07:24:01;;;;;;;12.10;5.03;;;;;;;;;;4362967;32;20468;-75
2020/12/21 07:26:27;;;;;;;15.37;5.03;;;;;;;;;;4348591;33;20580;-74
2020/12/21 07:28:52;;;;;;;13.93;4.73;;;;;;;;;;4348166;33;20206;-75
2020/12/21 07:31:18;;;;;;;16.83;6.27;;;;;;;;;;4348113;33;20892;-74
2020/12/21 07:33:48;;;;;;;14.07;4.83;;;;;;;;;;4361373;32;20229;-75
2020/12/21 07:36:13;;;;;;;20.23;5.30;;;;;;;;;;4362163;32;20139;-75
2020/12/21 07:38:38;;;;;;;13.10;5.50;;;;;;;;;;4349197;33;20233;-74
2020/12/21 07:41:03;;;;;;;15.27;4.97;;;;;;;;;;4360489;32;20178;-74
2020/12/21 07:43:34;;;;;;;20.50;5.90;;;;;;;;;;4347128;33;20693;-74
2020/12/21 07:46:02;;;;;;;15.57;5.37;;;;;;;;;;4348101;33;20165;-74
2020/12/21 07:48:28;;;;;;;15.37;4.97;;;;;;;;;;4361879;32;20155;-74
2020/12/21 07:50:53;;;;;;;17.20;5.70;;;;;;;;;;4362060;33;20196;-75
2020/12/21 07:53:19;;;;;;;16.67;5.63;;;;;;;;;;4361217;32;20209;-75
2020/12/21 07:56:05;;;;;;;15.50;5.90;;;;;;;;;;4362040;32;20175;-75
2020/12/21 07:58:34;;;;;;;14.90;5.20;;;;;;;;;;4360648;32;20232;-74
2020/12/21 08:00:59;;;;;;;13.53;5.63;;;;;;;;;;4350173;33;20171;-74
2020/12/21 08:03:25;;;;;;;14.57;5.60;;;;;;;;;;4348364;33;20650;-74
2020/12/21 08:06:02;;;;;;;16.33;5.60;;;;;;;;;;4361940;32;20201;-74
2020/12/21 08:08:27;;;;;;;14.43;5.57;;;;;;;;;;4348290;33;20177;-75
2020/12/21 08:10:57;;;;;;;18.40;6.13;;;;;;;;;;4349220;32;20499;-74
2020/12/21 08:13:22;;;;;;;15.50;6.83;;;;;;;;;;4347611;33;20221;-74
2020/12/21 08:15:48;;;;;;;17.17;6.43;;;;;;;;;;4361841;32;20211;-74
2020/12/21 08:18:13;;;;;;;17.27;6.77;;;;;;;;;;4347488;33;20603;-74
2020/12/21 08:20:42;;;;;;;21.83;6.60;;;;;;;;;;4361379;32;20603;-74
2020/12/21 08:23:07;;;;;;;16.53;7.23;;;;;;;;;;4361550;32;20225;-74
2020/12/21 08:25:32;;;;;;;18.60;7.53;;;;;;;;;;4361265;32;20544;-76
2020/12/21 08:27:58;;;;;;;17.63;6.73;;;;;;;;;;4347935;33;20171;-75
2020/12/21 08:30:24;;;;;;;16.77;6.90;;;;;;;;;;4347900;33;20240;-75
2020/12/21 08:32:52;;;;;;;21.33;8.37;;;;;;;;;;4347261;33;20532;-74
2020/12/21 08:35:28;;;;;;;22.33;7.77;;;;;;;;;;4360949;32;20215;-74
2020/12/21 08:38:04;;;;;;;17.93;6.80;;;;;;;;;;4360903;32;20193;-75
2020/12/21 08:40:29;;;;;;;18.30;9.10;;;;;;;;;;4345085;33;20167;-74
2020/12/21 08:42:54;;;;;;;20.83;10.83;;;;;;;;;;4347781;33;20183;-75
2020/12/21 08:45:21;;;;;;;20.67;9.80;;;;;;;;;;4346978;33;20167;-75
2020/12/21 08:47:46;;;;;;;18.17;7.97;;;;;;;;;;4346275;33;20174;-75
2020/12/21 08:50:12;;;;;;;17.53;7.63;;;;;;;;;;4345831;33;20193;-75
2020/12/21 08:52:39;;;;;;;16.12;8.00;;;;;;;;;;4332999;33;20250;-75
2020/12/21 08:55:06;;;;;;;20.33;8.80;;;;;;;;;;4359837;32;20186;-74
2020/12/21 08:57:35;;;;;;;21.50;9.27;;;;;;;;;;4346549;33;20167;-75
2020/12/21 09:00:00;;;;;;;16.67;8.53;;;;;;;;;;4346264;33;20596;-75
2020/12/21 09:02:26;;;;;;;17.63;8.53;;;;;;;;;;4346593;33;20241;-74
2020/12/21 09:04:54;;;;;;;19.50;8.23;;;;;;;;;;4343075;33;20163;-75
2020/12/21 09:07:22;;;;;;;19.90;8.90;;;;;;;;;;4332859;33;20605;-74
2020/12/21 09:09:47;;;;;;;23.12;8.23;;;;;;;;;;4343927;33;21786;-75
2020/12/21 09:12:13;;;;;;;20.27;8.23;;;;;;;;;;4345180;33;20213;-75
2020/12/21 09:14:38;;;;;;;15.07;8.38;;;;;;;;;;4344379;33;20198;-75
2020/12/21 09:17:03;;;;;;;18.20;9.30;;;;;;;;;;4341394;33;20249;-76
2020/12/21 09:19:29;;;;;;;19.80;9.03;;;;;;;;;;4345082;33;20226;-74
2020/12/21 09:21:54;;;;;;;22.23;9.50;;;;;;;;;;4358674;32;20644;-75
2020/12/21 09:24:19;;;;;;;20.15;9.65;;;;;;;;;;4343077;33;20166;-74
2020/12/21 09:26:46;;;;;;;18.23;8.82;;;;;;;;;;4359288;32;20609;-75
2020/12/21 09:29:11;;;;;;;22.27;9.00;;;;;;;;;;4353835;32;20162;-75
2020/12/21 09:31:37;;;;;;;19.15;9.38;;;;;;;;;;4348641;32;20197;-74
2020/12/21 09:34:02;;;;;;;20.77;8.55;;;;;;;;;;4345429;33;20639;-74
2020/12/21 09:36:29;;;;;;;19.08;8.10;;;;;;;;;;4358703;32;20152;-75
2020/12/21 09:38:55;;;;;;;20.50;8.50;;;;;;;;;;4359133;32;20209;-74
2020/12/21 09:41:20;;;;;;;18.67;8.90;;;;;;;;;;4345780;33;20854;-74
2020/12/21 09:43:46;;;;;;;18.37;8.50;;;;;;;;;;4345436;33;20182;-75
2020/12/21 09:46:27;;;;;;;21.83;9.25;;;;;;;;;;4359120;32;20248;-75
2020/12/21 09:48:53;;;;;;;21.23;8.25;;;;;;;;;;4352963;33;20516;-75
2020/12/21 09:51:18;;;;;;;24.10;8.93;;;;;;;;;;4358414;32;20135;-75
2020/12/21 09:53:44;;;;;;;19.55;8.90;;;;;;;;;;4343963;33;20195;-75
2020/12/21 09:56:13;;;;;;;21.00;10.65;;;;;;;;;;4359540;32;20178;-76
2020/12/21 09:58:39;;;;;;;20.20;10.93;;;;;;;;;;4342799;33;20213;-74
2020/12/21 10:01:06;;;;;;;17.60;8.10;;;;;;;;;;4345154;33;20624;-75
2020/12/21 10:03:36;;;;;;;19.02;8.18;;;;;;;;;;4349205;32;20201;-75
2020/12/21 10:06:02;;;;;;;19.23;7.95;;;;;;;;;;4371532;32;20151;-75
2020/12/21 10:08:27;;;;;;;16.77;7.93;;;;;;;;;;4345730;33;20237;-74
2020/12/21 10:10:52;;;;;;;17.23;8.02;;;;;;;;;;4345286;33;20167;-74
2020/12/21 10:13:18;;;;;;;15.20;8.57;;;;;;;;;;4345026;33;20178;-74
2020/12/21 10:15:43;;;;;;;16.92;7.78;;;;;;;;;;4356491;32;20159;-75
2020/12/21 10:18:08;;;;;;;16.02;6.75;;;;;;;;;;4342596;33;20249;-75
2020/12/21 10:20:34;;;;;;;19.25;7.37;;;;;;;;;;4359108;32;20212;-74
2020/12/21 10:23:01;;;;;;;15.80;7.03;;;;;;;;;;4358907;32;20177;-75
2020/12/21 10:25:26;;;;;;;19.93;7.90;;;;;;;;;;4345312;33;20182;-75
2020/12/21 10:27:51;;;;;;;20.42;8.05;;;;;;;;;;4345155;33;20519;-75
2020/12/21 10:30:17;;;;;;;16.10;7.00;;;;;;;;;;4345165;33;20188;-75
2020/12/21 10:32:43;;;;;;;19.98;6.50;;;;;;;;;;4358550;33;20198;-75
2020/12/21 10:35:08;;;;;;;16.45;6.20;;;;;;;;;;4359184;33;20224;-75
2020/12/21 10:37:34;;;;;;;25.48;9.77;;;;;;;;;;4348803;33;20684;-74
2020/12/21 10:39:59;;;;;;;15.93;7.77;;;;;;;;;;4345589;33;20216;-74
2020/12/21 10:42:24;;;;;;;26.20;12.40;;;;;;;;;;4358777;33;20194;-72
2020/12/21 10:44:49;;;;;;;30.77;13.88;;;;;;;;;;4345172;33;20190;-75
2020/12/21 10:47:15;;;;;;;27.27;10.73;;;;;;;;;;4356087;33;20175;-74
2020/12/21 10:49:40;;;;;;;23.17;13.00;;;;;;;;;;4344119;33;20162;-74
2020/12/21 10:52:05;;;;;;;18.70;5.47;;;;;;;;;;4345148;33;20171;-75
2020/12/21 10:54:30;;;;;;;18.73;5.97;;;;;;;;;;4330169;33;20625;-74
2020/12/21 10:56:56;;;;;;;12.75;6.10;;;;;;;;;;4356607;33;20191;-74
2020/12/21 10:59:21;;;;;;;12.30;6.12;;;;;;;;;;4359172;33;20146;-75
2020/12/21 11:01:47;;;;;;;15.65;6.05;;;;;;;;;;4357947;33;20201;-75
2020/12/21 11:04:15;;;;;;;12.40;5.25;;;;;;;;;;4358378;33;20150;-75
2020/12/21 11:06:40;;;;;;;11.32;5.28;;;;;;;;;;4342779;33;20203;-75
2020/12/21 11:09:05;;;;;;;17.35;5.28;;;;;;;;;;4350088;32;20198;-73
2020/12/21 11:11:31;;;;;;;14.00;5.07;;;;;;;;;;4345063;33;20222;-74
2020/12/21 11:13:57;;;;;;;13.62;5.00;;;;;;;;;;4361218;32;20155;-75
2020/12/21 11:16:22;;;;;;;10.77;4.77;;;;;;;;;;4361054;32;20504;-75
2020/12/21 11:18:50;;;;;;;8.00;4.40;;;;;;;;;;4347287;33;20218;-75
2020/12/21 11:21:15;;;;;;;12.00;4.90;;;;;;;;;;4354683;33;20647;-74
2020/12/21 11:23:41;;;;;;;10.55;3.95;;;;;;;;;;4347178;33;20210;-76
2020/12/21 11:26:06;;;;;;;13.15;4.40;;;;;;;;;;4360653;32;20236;-75
2020/12/21 11:28:31;;;;;;;8.27;4.03;;;;;;;;;;4347422;33;20191;-75
2020/12/21 11:30:57;;;;;;;15.30;7.90;;;;;;;;;;4361076;32;20143;-75
2020/12/21 11:33:22;;;;;;;22.58;10.52;;;;;;;;;;4348001;33;20170;-76
2020/12/21 11:35:47;;;;;;;14.52;7.40;;;;;;;;;;4365192;32;20150;-74
2020/12/21 11:38:15;;;;;;;9.82;5.00;;;;;;;;;;4357781;33;20201;-75
2020/12/21 11:40:40;;;;;;;12.68;4.82;;;;;;;;;;4347217;33;20197;-75
2020/12/21 11:43:06;;;;;;;13.00;5.50;;;;;;;;;;4347271;33;20159;-74
2020/12/21 11:45:31;;;;;;;9.80;5.07;;;;;;;;;;4360979;32;20261;-75
2020/12/21 11:47:56;;;;;;;12.30;5.05;;;;;;;;;;4346253;33;20165;-75
2020/12/21 11:50:21;;;;;;;12.07;5.12;;;;;;;;;;4347807;33;20481;-75
2020/12/21 11:52:47;;;;;;;12.37;5.75;;;;;;;;;;4360968;32;20155;-75
2020/12/21 11:55:12;;;;;;;10.48;4.68;;;;;;;;;;4347793;33;20222;-75
2020/12/21 11:57:37;;;;;;;11.33;4.73;;;;;;;;;;4347008;33;20166;-75
2020/12/21 12:00:04;;;;;;;9.23;4.70;;;;;;;;;;4360343;33;20198;-75
2020/12/21 12:02:34;;;;;;;12.88;4.95;;;;;;;;;;4361050;32;20175;-75
2020/12/21 12:05:00;;;;;;;15.70;5.00;;;;;;;;;;4360891;33;20131;-76
2020/12/21 12:07:25;;;;;;;12.90;4.77;;;;;;;;;;4346397;32;20221;-75
2020/12/21 12:09:50;;;;;;;9.43;4.70;;;;;;;;;;4360388;32;20505;-75
2020/12/21 12:12:15;;;;;;;13.95;4.75;;;;;;;;;;4341396;33;20171;-74
2020/12/21 12:14:41;;;;;;;11.15;5.22;;;;;;;;;;4360696;32;20135;-75
2020/12/21 12:17:06;;;;;;;8.75;4.72;;;;;;;;;;4344952;33;20248;-76
2020/12/21 12:19:31;;;;;;;15.32;6.72;;;;;;;;;;4347241;32;20287;-75
2020/12/21 12:21:56;;;;;;;12.45;5.65;;;;;;;;;;4343281;33;20201;-74
2020/12/21 12:24:22;;;;;;;13.70;6.28;;;;;;;;;;4360231;32;20511;-75
2020/12/21 12:26:47;;;;;;;9.90;4.37;;;;;;;;;;4361069;32;20143;-74
2020/12/21 12:29:12;;;;;;;10.10;4.37;;;;;;;;;;4360759;32;20147;-74
2020/12/21 12:31:38;;;;;;;9.18;3.90;;;;;;;;;;4360913;32;20140;-75
2020/12/21 12:34:03;;;;;;;6.72;3.53;;;;;;;;;;4338440;33;20233;-75
2020/12/21 12:36:28;;;;;;;7.43;4.43;;;;;;;;;;4356864;32;20975;-74
2020/12/21 12:38:54;;;;;;;12.50;5.12;;;;;;;;;;4359294;32;20221;-74
2020/12/21 12:41:19;;;;;;;12.40;5.62;;;;;;;;;;4358369;32;20226;-75
2020/12/21 12:43:45;;;;;;;7.60;3.75;;;;;;;;;;4354484;32;20506;-74
2020/12/21 12:46:10;;;;;;;13.35;3.70;;;;;;;;;;4350235;33;20163;-75
2020/12/21 12:48:36;;;;;;;11.57;3.80;;;;;;;;;;4361327;32;20210;-74
2020/12/21 12:51:02;;;;;;;9.85;3.40;;;;;;;;;;4359414;32;20210;-75
2020/12/21 12:53:27;;;;;;;11.48;3.80;;;;;;;;;;4355834;33;20155;-73
2020/12/21 12:55:52;;;;;;;5.57;3.37;;;;;;;;;;4351935;32;20169;-75
2020/12/21 12:58:17;;;;;;;6.30;3.05;;;;;;;;;;4357756;32;20194;-75
2020/12/21 13:00:43;;;;;;;5.22;3.00;;;;;;;;;;4345987;32;20536;-75
2020/12/21 13:03:08;;;;;;;7.62;3.40;;;;;;;;;;4360362;32;20167;-74
2020/12/21 13:05:36;;;;;;;7.45;3.28;;;;;;;;;;4359494;32;20304;-76
2020/12/21 13:08:02;;;;;;;5.90;3.15;;;;;;;;;;4345691;33;20194;-74
2020/12/21 13:10:28;;;;;;;7.75;2.70;;;;;;;;;;4346252;33;20187;-74
2020/12/21 13:12:54;;;;;;;5.70;2.70;;;;;;;;;;4359442;32;20161;-74
2020/12/21 13:15:19;;;;;;;6.60;2.80;;;;;;;;;;4360320;32;20147;-74
2020/12/21 13:17:44;;;;;;;5.35;2.85;;;;;;;;;;4345775;33;20215;-73
2020/12/21 13:20:09;;;;;;;6.53;3.00;;;;;;;;;;4358929;32;20534;-75
2020/12/21 13:22:35;;;;;;;7.55;3.10;;;;;;;;;;4360001;32;20143;-73
2020/12/21 13:25:00;;;;;;;8.40;2.90;;;;;;;;;;4346643;33;20163;-75
2020/12/21 13:27:25;;;;;;;6.97;2.83;;;;;;;;;;4359014;32;20189;-75
2020/12/21 13:29:50;;;;;;;6.78;3.00;;;;;;;;;;4359736;32;20159;-74
2020/12/21 13:32:15;;;;;;;5.25;2.60;;;;;;;;;;4358895;32;20493;-74
2020/12/21 13:34:41;;;;;;;6.10;2.93;;;;;;;;;;4359116;32;20222;-76
2020/12/21 13:37:06;;;;;;;7.18;2.50;;;;;;;;;;4345520;33;20167;-75
2020/12/21 13:39:31;;;;;;;5.67;2.93;;;;;;;;;;4345934;33;20159;-75
2020/12/21 13:41:57;;;;;;;5.72;2.78;;;;;;;;;;4345545;33;20182;-77
2020/12/21 13:44:22;;;;;;;6.90;3.13;;;;;;;;;;4346099;33;20166;-75
2020/12/21 13:46:47;;;;;;;5.45;2.65;;;;;;;;;;4359293;32;20154;-75
2020/12/21 13:49:13;;;;;;;5.25;2.80;;;;;;;;;;4359866;32;20147;-74
2020/12/21 13:51:38;;;;;;;8.13;2.95;;;;;;;;;;4342982;33;20230;-75
2020/12/21 13:54:03;;;;;;;7.30;3.30;;;;;;;;;;4338285;33;20218;-75
2020/12/21 13:56:29;;;;;;;4.37;2.70;;;;;;;;;;4346494;33;20190;-75
2020/12/21 13:58:54;;;;;;;4.73;2.90;;;;;;;;;;4345879;33;20210;-74
2020/12/21 14:01:19;;;;;;;5.80;2.77;;;;;;;;;;4345924;33;20624;-73
2020/12/21 14:03:44;;;;;;;5.80;3.17;;;;;;;;;;4359894;32;20798;-74
2020/12/21 14:06:12;;;;;;;5.37;2.62;;;;;;;;;;4342802;33;20171;-75
2020/12/21 14:08:37;;;;;;;3.12;2.75;;;;;;;;;;4344714;33;20210;-75
2020/12/21 14:11:03;;;;;;;3.33;2.37;;;;;;;;;;4358898;33;20580;-74
2020/12/21 14:13:28;;;;;;;3.87;2.60;;;;;;;;;;4358311;32;20162;-76
2020/12/21 14:15:53;;;;;;;5.97;3.28;;;;;;;;;;4373972;32;20147;-74
2020/12/21 14:18:21;;;;;;;6.43;2.90;;;;;;;;;;4373677;32;20602;-75
2020/12/21 14:20:46;;;;;;;5.45;3.40;;;;;;;;;;4374019;32;20191;-74
2020/12/21 14:23:14;;;;;;;4.87;2.72;;;;;;;;;;4357526;33;20218;-73
2020/12/21 14:25:39;;;;;;;4.82;3.00;;;;;;;;;;4346030;33;20574;-75